createdAt,value
2019-02-24T00:00:35.131Z,22.65
2019-02-24T00:01:35.140Z,22.67
2019-02-24T00:02:35.110Z,22.60
2019-02-24T00:03:35.099Z,22.68
2019-02-24T00:04:35.087Z,22.69
2019-02-24T00:05:35.076Z,22.67
2019-02-24T00:06:35.069Z,22.67
2019-02-24T00:07:35.323Z,22.68
2019-02-24T00:08:35.042Z,22.68
2019-02-24T00:09:35.031Z,22.69
2019-02-24T00:10:35.021Z,22.64
2019-02-24T00:11:35.011Z,22.65
2019-02-24T00:12:34.999Z,22.69
2019-02-24T00:13:35.273Z,22.68
2019-02-24T00:14:34.977Z,22.69
2019-02-24T00:15:34.968Z,22.65
2019-02-24T00:16:34.955Z,22.67
2019-02-24T00:17:34.945Z,22.68
2019-02-24T00:18:34.932Z,22.64
2019-02-24T00:19:35.242Z,22.68
2019-02-24T00:20:34.910Z,22.69
2019-02-24T00:21:34.901Z,22.67
2019-02-24T00:22:34.887Z,22.65
2019-02-24T00:23:34.877Z,22.62
2019-02-24T00:24:34.866Z,22.69
2019-02-24T00:25:34.861Z,22.59
2019-02-24T00:26:34.843Z,22.62
2019-02-24T00:27:34.833Z,22.65
2019-02-24T00:28:34.821Z,22.59
2019-02-24T00:29:34.811Z,22.68
2019-02-24T00:30:34.804Z,22.65
2019-02-24T00:31:35.067Z,22.59
2019-02-24T00:32:34.777Z,22.60
2019-02-24T00:33:34.767Z,22.59
2019-02-24T00:34:34.763Z,22.65
2019-02-24T00:35:34.744Z,22.60
2019-02-24T00:36:34.732Z,22.57
2019-02-24T00:37:34.743Z,22.67
2019-02-24T00:38:34.712Z,22.60
2019-02-24T00:39:34.701Z,22.67
2019-02-24T00:40:34.688Z,22.64
2019-02-24T00:41:34.678Z,22.57
2019-02-24T00:42:34.666Z,22.57
2019-02-24T00:43:34.662Z,22.59
2019-02-24T00:44:34.644Z,22.57
2019-02-24T00:45:34.635Z,22.60
2019-02-24T00:46:34.627Z,22.62
2019-02-24T00:47:34.614Z,22.64
2019-02-24T00:48:34.600Z,22.56
2019-02-24T00:49:34.599Z,22.59
2019-02-24T00:50:34.578Z,22.56
2019-02-24T00:51:34.568Z,22.56
2019-02-24T00:52:34.558Z,22.64
2019-02-24T00:53:34.546Z,22.60
2019-02-24T00:54:34.537Z,22.68
2019-02-24T00:55:34.530Z,22.59
2019-02-24T00:56:34.513Z,22.64
2019-02-24T00:57:34.501Z,22.57
2019-02-24T00:58:34.491Z,22.62
2019-02-24T00:59:34.484Z,22.57
2019-02-24T01:00:34.469Z,22.60
2019-02-24T01:01:34.718Z,22.57
2019-02-24T01:02:34.446Z,22.64
2019-02-24T01:03:34.436Z,22.60
2019-02-24T01:04:34.426Z,22.65
2019-02-24T01:05:34.413Z,22.57
2019-02-24T01:06:34.402Z,22.64
2019-02-24T01:07:34.654Z,22.60
2019-02-24T01:08:34.381Z,22.53
2019-02-24T01:09:34.369Z,22.59
2019-02-24T01:10:34.357Z,22.57
2019-02-24T01:11:34.346Z,22.60
2019-02-24T01:12:34.341Z,22.57
2019-02-24T01:13:34.599Z,22.53
2019-02-24T01:14:34.312Z,22.57
2019-02-24T01:15:34.302Z,22.59
2019-02-24T01:16:34.291Z,22.50
2019-02-24T01:17:34.281Z,22.54
2019-02-24T01:18:34.268Z,22.62
2019-02-24T01:19:34.266Z,22.59
2019-02-24T01:20:34.249Z,22.59
2019-02-24T01:21:34.237Z,22.64
2019-02-24T01:22:34.226Z,22.54
2019-02-24T01:23:34.214Z,22.59
2019-02-24T01:24:34.203Z,22.59
2019-02-24T01:25:34.201Z,22.57
2019-02-24T01:26:34.180Z,22.62
2019-02-24T01:27:34.169Z,22.60
2019-02-24T01:28:34.158Z,22.54
2019-02-24T01:29:34.148Z,22.54
2019-02-24T01:30:34.136Z,22.53
2019-02-24T01:31:34.413Z,22.56
2019-02-24T01:32:34.115Z,22.54
2019-02-24T01:33:34.105Z,22.62
2019-02-24T01:34:34.092Z,22.59
2019-02-24T01:35:34.081Z,22.59
2019-02-24T01:36:34.070Z,22.59
2019-02-24T01:37:34.065Z,22.54
2019-02-24T01:38:34.048Z,22.54
2019-02-24T01:39:34.036Z,22.56
2019-02-24T01:40:34.026Z,22.62
2019-02-24T01:41:34.025Z,22.59
2019-02-24T01:42:34.003Z,22.60
2019-02-24T01:43:34.317Z,22.65
2019-02-24T01:44:33.981Z,22.57
2019-02-24T01:45:33.970Z,22.56
2019-02-24T01:46:33.959Z,22.52
2019-02-24T01:47:33.947Z,22.64
2019-02-24T01:48:33.938Z,22.62
2019-02-24T01:49:34.836Z,22.54
2019-02-24T01:50:33.915Z,22.57
2019-02-24T01:51:33.905Z,22.59
2019-02-24T01:52:33.893Z,22.57
2019-02-24T01:53:33.883Z,22.54
2019-02-24T01:54:33.871Z,22.59
2019-02-24T01:55:34.130Z,22.60
2019-02-24T01:56:33.851Z,22.56
2019-02-24T01:57:33.838Z,22.57
2019-02-24T01:58:35.333Z,22.53
2019-02-24T01:59:33.816Z,22.60
2019-02-24T02:00:33.805Z,22.59
2019-02-24T02:01:34.069Z,22.57
2019-02-24T02:02:33.783Z,22.52
2019-02-24T02:03:33.771Z,22.60
2019-02-24T02:04:33.760Z,22.60
2019-02-24T02:05:33.750Z,22.54
2019-02-24T02:06:33.739Z,22.54
2019-02-24T02:07:34.049Z,22.60
2019-02-24T02:08:33.716Z,22.56
2019-02-24T02:09:33.706Z,22.60
2019-02-24T02:10:33.697Z,22.56
2019-02-24T02:11:33.683Z,22.59
2019-02-24T02:12:33.671Z,22.60
2019-02-24T02:13:33.667Z,22.59
2019-02-24T02:14:33.649Z,22.56
2019-02-24T02:15:33.639Z,22.65
2019-02-24T02:16:33.627Z,22.53
2019-02-24T02:17:33.617Z,22.57
2019-02-24T02:18:33.605Z,22.56
2019-02-24T02:19:33.877Z,22.53
2019-02-24T02:20:33.585Z,22.57
2019-02-24T02:21:33.574Z,22.44
2019-02-24T02:22:33.564Z,22.56
2019-02-24T02:23:33.550Z,22.54
2019-02-24T02:24:33.540Z,22.50
2019-02-24T02:25:33.548Z,22.53
2019-02-24T02:26:33.518Z,22.54
2019-02-24T02:27:33.505Z,22.56
2019-02-24T02:28:33.496Z,22.49
2019-02-24T02:29:33.485Z,22.46
2019-02-24T02:30:33.475Z,22.43
2019-02-24T02:31:33.732Z,22.52
2019-02-24T02:32:33.450Z,22.46
2019-02-24T02:33:33.439Z,22.54
2019-02-24T02:34:33.435Z,22.54
2019-02-24T02:35:33.420Z,22.46
2019-02-24T02:36:33.448Z,22.52
2019-02-24T02:37:33.403Z,22.53
2019-02-24T02:38:33.385Z,22.46
2019-02-24T02:39:33.374Z,22.53
2019-02-24T02:40:33.363Z,22.56
2019-02-24T02:41:33.351Z,22.52
2019-02-24T02:42:33.341Z,22.46
2019-02-24T02:43:33.613Z,22.49
2019-02-24T02:44:33.321Z,22.39
2019-02-24T02:45:33.312Z,22.50
2019-02-24T02:46:33.296Z,22.50
2019-02-24T02:47:33.284Z,22.39
2019-02-24T02:48:33.272Z,22.49
2019-02-24T02:49:33.595Z,22.53
2019-02-24T02:50:33.252Z,22.41
2019-02-24T02:51:33.241Z,22.47
2019-02-24T02:52:33.231Z,22.44
2019-02-24T02:53:33.218Z,22.47
2019-02-24T02:54:33.207Z,22.50
2019-02-24T02:55:33.478Z,22.44
2019-02-24T02:56:33.189Z,22.41
2019-02-24T02:57:33.184Z,22.41
2019-02-24T02:58:33.164Z,22.47
2019-02-24T02:59:33.152Z,22.46
2019-02-24T03:00:33.147Z,22.39
2019-02-24T03:01:33.137Z,22.49
2019-02-24T03:02:33.118Z,22.39
2019-02-24T03:03:33.108Z,22.39
2019-02-24T03:04:33.100Z,22.39
2019-02-24T03:05:33.085Z,22.39
2019-02-24T03:06:33.077Z,22.39
2019-02-24T03:07:33.083Z,22.52
2019-02-24T03:08:33.053Z,22.46
2019-02-24T03:09:33.042Z,22.38
2019-02-24T03:10:33.032Z,22.46
2019-02-24T03:11:33.028Z,22.46
2019-02-24T03:12:33.009Z,22.47
2019-02-24T03:13:33.008Z,22.44
2019-02-24T03:14:32.987Z,22.39
2019-02-24T03:15:32.977Z,22.49
2019-02-24T03:16:32.965Z,22.34
2019-02-24T03:17:32.952Z,22.47
2019-02-24T03:18:32.989Z,22.47
2019-02-24T03:19:32.937Z,22.39
2019-02-24T03:20:32.920Z,22.38
2019-02-24T03:21:32.908Z,22.50
2019-02-24T03:22:32.898Z,22.47
2019-02-24T03:23:32.887Z,22.41
2019-02-24T03:24:32.878Z,22.47
2019-02-24T03:25:32.883Z,22.47
2019-02-24T03:26:32.857Z,22.49
2019-02-24T03:27:32.842Z,22.49
2019-02-24T03:28:32.831Z,22.38
2019-02-24T03:29:32.824Z,22.43
2019-02-24T03:30:32.810Z,22.46
2019-02-24T03:31:33.074Z,22.46
2019-02-24T03:32:32.787Z,22.46
2019-02-24T03:33:32.777Z,22.44
2019-02-24T03:34:32.765Z,22.47
2019-02-24T03:35:32.755Z,22.43
2019-02-24T03:36:32.742Z,22.44
2019-02-24T03:37:33.030Z,22.49
2019-02-24T03:38:32.721Z,22.46
2019-02-24T03:39:32.709Z,22.39
2019-02-24T03:40:32.698Z,22.49
2019-02-24T03:41:32.687Z,22.49
2019-02-24T03:42:32.676Z,22.46
2019-02-24T03:43:32.942Z,22.49
2019-02-24T03:44:32.655Z,22.54
2019-02-24T03:45:32.643Z,22.44
2019-02-24T03:46:32.632Z,22.37
2019-02-24T03:47:32.623Z,22.43
2019-02-24T03:48:32.611Z,22.41
2019-02-24T03:49:32.620Z,22.46
2019-02-24T03:50:32.587Z,22.46
2019-02-24T03:51:32.578Z,22.46
2019-02-24T03:52:32.566Z,22.49
2019-02-24T03:53:32.580Z,22.44
2019-02-24T03:54:32.543Z,22.46
2019-02-24T03:55:32.859Z,22.50
2019-02-24T03:56:32.521Z,22.47
2019-02-24T03:57:32.510Z,22.41
2019-02-24T03:58:32.502Z,22.49
2019-02-24T03:59:32.489Z,22.38
2019-02-24T04:00:32.477Z,22.49
2019-02-24T04:01:32.744Z,22.44
2019-02-24T04:02:32.460Z,22.44
2019-02-24T04:03:32.445Z,22.41
2019-02-24T04:04:32.434Z,22.39
2019-02-24T04:05:32.421Z,22.43
2019-02-24T04:06:32.411Z,22.39
2019-02-24T04:07:32.407Z,22.38
2019-02-24T04:08:32.389Z,22.44
2019-02-24T04:09:32.377Z,22.41
2019-02-24T04:10:32.366Z,22.46
2019-02-24T04:11:32.356Z,22.44
2019-02-24T04:12:32.344Z,22.43
2019-02-24T04:13:32.605Z,22.39
2019-02-24T04:14:32.323Z,22.43
2019-02-24T04:15:32.312Z,22.47
2019-02-24T04:16:32.301Z,22.37
2019-02-24T04:17:32.291Z,22.43
2019-02-24T04:18:32.278Z,22.39
2019-02-24T04:19:32.288Z,22.41
2019-02-24T04:20:32.257Z,22.43
2019-02-24T04:21:32.244Z,22.39
2019-02-24T04:22:32.242Z,22.47
2019-02-24T04:23:32.223Z,22.44
2019-02-24T04:24:32.212Z,22.39
2019-02-24T04:25:32.211Z,22.46
2019-02-24T04:26:32.189Z,22.43
2019-02-24T04:27:32.179Z,22.37
2019-02-24T04:28:32.168Z,22.39
2019-02-24T04:29:32.155Z,22.41
2019-02-24T04:30:32.149Z,22.46
2019-02-24T04:31:32.143Z,22.37
2019-02-24T04:32:32.149Z,22.41
2019-02-24T04:33:32.112Z,22.35
2019-02-24T04:34:32.103Z,22.38
2019-02-24T04:35:32.089Z,22.35
2019-02-24T04:36:32.081Z,22.38
2019-02-24T04:37:32.344Z,22.38
2019-02-24T04:38:32.059Z,22.38
2019-02-24T04:39:32.046Z,22.38
2019-02-24T04:40:32.036Z,22.37
2019-02-24T04:41:32.024Z,22.39
2019-02-24T04:42:32.013Z,22.41
2019-02-24T04:43:32.285Z,22.39
2019-02-24T04:44:31.990Z,22.39
2019-02-24T04:45:31.980Z,22.39
2019-02-24T04:46:31.968Z,22.43
2019-02-24T04:47:31.957Z,22.43
2019-02-24T04:48:31.946Z,22.43
2019-02-24T04:49:31.958Z,22.38
2019-02-24T04:50:31.925Z,22.41
2019-02-24T04:51:31.914Z,22.39
2019-02-24T04:52:31.903Z,22.31
2019-02-24T04:53:31.895Z,22.34
2019-02-24T04:54:31.886Z,22.32
2019-02-24T04:55:32.157Z,22.38
2019-02-24T04:56:31.858Z,22.37
2019-02-24T04:57:31.846Z,22.39
2019-02-24T04:58:31.837Z,22.38
2019-02-24T04:59:35.105Z,22.38
2019-02-24T05:00:31.814Z,22.37
2019-02-24T05:01:32.095Z,22.38
2019-02-24T05:02:31.792Z,22.35
2019-02-24T05:03:31.782Z,22.34
2019-02-24T05:04:31.771Z,22.38
2019-02-24T05:05:31.759Z,22.37
2019-02-24T05:06:31.749Z,22.35
2019-02-24T05:07:32.025Z,22.34
2019-02-24T05:08:31.726Z,22.41
2019-02-24T05:09:31.716Z,22.35
2019-02-24T05:10:31.703Z,22.37
2019-02-24T05:11:31.692Z,22.34
2019-02-24T05:12:31.746Z,22.38
2019-02-24T05:13:31.687Z,22.39
2019-02-24T05:14:31.661Z,22.41
2019-02-24T05:15:31.651Z,22.37
2019-02-24T05:16:31.637Z,22.37
2019-02-24T05:17:31.626Z,22.39
2019-02-24T05:18:31.614Z,22.39
2019-02-24T05:19:31.938Z,22.34
2019-02-24T05:20:31.593Z,22.38
2019-02-24T05:21:31.583Z,22.34
2019-02-24T05:22:31.570Z,22.32
2019-02-24T05:23:31.559Z,22.35
2019-02-24T05:24:31.550Z,22.35
2019-02-24T05:25:31.565Z,22.31
2019-02-24T05:26:31.525Z,22.38
2019-02-24T05:27:31.514Z,22.37
2019-02-24T05:28:31.505Z,22.37
2019-02-24T05:29:31.531Z,22.32
2019-02-24T05:30:31.483Z,22.35
2019-02-24T05:31:31.755Z,22.35
2019-02-24T05:32:31.460Z,22.35
2019-02-24T05:33:31.447Z,22.32
2019-02-24T05:34:31.440Z,22.31
2019-02-24T05:35:31.425Z,22.35
2019-02-24T05:36:31.498Z,22.37
2019-02-24T05:37:31.749Z,22.35
2019-02-24T05:38:31.392Z,22.34
2019-02-24T05:39:31.381Z,22.34
2019-02-24T05:40:31.371Z,22.29
2019-02-24T05:41:31.359Z,22.31
2019-02-24T05:42:31.349Z,22.34
2019-02-24T05:43:31.347Z,22.32
2019-02-24T05:44:31.326Z,22.38
2019-02-24T05:45:31.315Z,22.25
2019-02-24T05:46:31.315Z,22.31
2019-02-24T05:47:31.296Z,22.32
2019-02-24T05:48:33.533Z,22.28
2019-02-24T05:49:31.562Z,22.23
2019-02-24T05:50:31.260Z,22.31
2019-02-24T05:51:31.253Z,22.34
2019-02-24T05:52:31.238Z,22.31
2019-02-24T05:53:31.230Z,22.29
2019-02-24T05:54:31.267Z,22.28
2019-02-24T05:55:31.484Z,22.29
2019-02-24T05:56:31.193Z,22.29
2019-02-24T05:57:31.183Z,22.28
2019-02-24T05:58:31.171Z,22.27
2019-02-24T05:59:31.162Z,22.32
2019-02-24T06:00:31.153Z,22.32
2019-02-24T06:01:31.437Z,22.34
2019-02-24T06:02:31.127Z,22.34
2019-02-24T06:03:31.116Z,22.29
2019-02-24T06:04:31.107Z,22.23
2019-02-24T06:05:31.097Z,22.28
2019-02-24T06:06:31.084Z,22.28
2019-02-24T06:07:33.193Z,22.25
2019-02-24T06:08:31.060Z,22.23
2019-02-24T06:09:31.049Z,22.28
2019-02-24T06:10:31.037Z,22.31
2019-02-24T06:11:31.029Z,22.34
2019-02-24T06:12:31.019Z,22.29
2019-02-24T06:13:31.322Z,22.29
2019-02-24T06:14:30.994Z,22.27
2019-02-24T06:15:30.983Z,22.37
2019-02-24T06:16:30.976Z,22.29
2019-02-24T06:17:30.961Z,22.28
2019-02-24T06:18:30.950Z,22.27
2019-02-24T06:19:30.946Z,22.29
2019-02-24T06:20:30.928Z,22.28
2019-02-24T06:21:30.918Z,22.29
2019-02-24T06:22:30.907Z,22.31
2019-02-24T06:23:30.894Z,22.32
2019-02-24T06:24:30.883Z,22.31
2019-02-24T06:25:31.149Z,22.29
2019-02-24T06:26:30.862Z,22.34
2019-02-24T06:27:30.853Z,22.25
2019-02-24T06:28:30.839Z,22.31
2019-02-24T06:29:30.827Z,22.35
2019-02-24T06:30:30.819Z,22.29
2019-02-24T06:31:31.135Z,22.29
2019-02-24T06:32:30.794Z,22.29
2019-02-24T06:33:30.784Z,22.27
2019-02-24T06:34:30.773Z,22.28
2019-02-24T06:35:30.776Z,22.25
2019-02-24T06:36:30.750Z,22.29
2019-02-24T06:37:30.759Z,22.28
2019-02-24T06:38:30.729Z,22.31
2019-02-24T06:39:30.718Z,22.29
2019-02-24T06:40:30.706Z,22.27
2019-02-24T06:41:30.697Z,22.23
2019-02-24T06:42:30.684Z,22.28
2019-02-24T06:43:31.000Z,22.29
2019-02-24T06:44:30.662Z,22.25
2019-02-24T06:45:30.650Z,22.23
2019-02-24T06:46:30.671Z,22.29
2019-02-24T06:47:30.628Z,22.23
2019-02-24T06:48:30.620Z,22.28
2019-02-24T06:49:30.941Z,22.32
2019-02-24T06:50:35.406Z,22.27
2019-02-24T06:51:31.583Z,22.28
2019-02-24T06:52:30.575Z,22.31
2019-02-24T06:53:30.562Z,22.23
2019-02-24T06:54:30.552Z,22.25
2019-02-24T06:55:30.865Z,22.28
2019-02-24T06:56:30.530Z,22.22
2019-02-24T06:57:30.518Z,22.22
2019-02-24T06:58:30.507Z,22.25
2019-02-24T06:59:30.499Z,22.31
2019-02-24T07:00:30.485Z,22.28
2019-02-24T07:01:30.482Z,22.28
2019-02-24T07:02:30.463Z,22.28
2019-02-24T07:03:30.452Z,22.25
2019-02-24T07:04:30.441Z,22.28
2019-02-24T07:05:30.429Z,22.29
2019-02-24T07:06:30.418Z,22.28
2019-02-24T07:07:30.686Z,22.31
2019-02-24T07:08:30.404Z,22.28
2019-02-24T07:09:30.385Z,22.28
2019-02-24T07:10:30.375Z,22.25
2019-02-24T07:11:30.369Z,22.27
2019-02-24T07:12:30.351Z,22.27
2019-02-24T07:13:30.645Z,22.23
2019-02-24T07:14:30.330Z,22.27
2019-02-24T07:15:30.318Z,22.29
2019-02-24T07:16:30.308Z,22.34
2019-02-24T07:17:30.297Z,22.27
2019-02-24T07:18:30.286Z,22.22
2019-02-24T07:19:30.562Z,22.27
2019-02-24T07:20:30.263Z,22.31
2019-02-24T07:21:30.253Z,22.22
2019-02-24T07:22:30.241Z,22.25
2019-02-24T07:23:30.231Z,22.25
2019-02-24T07:24:30.220Z,22.29
2019-02-24T07:25:30.227Z,22.27
2019-02-24T07:26:30.196Z,22.28
2019-02-24T07:27:30.186Z,22.25
2019-02-24T07:28:30.175Z,22.20
2019-02-24T07:29:30.163Z,22.28
2019-02-24T07:30:30.153Z,22.25
2019-02-24T07:31:30.149Z,22.25
2019-02-24T07:32:30.131Z,22.31
2019-02-24T07:33:30.124Z,22.31
2019-02-24T07:34:30.114Z,22.20
2019-02-24T07:35:30.098Z,22.27
2019-02-24T07:36:30.086Z,22.28
2019-02-24T07:37:30.394Z,22.25
2019-02-24T07:38:30.064Z,22.22
2019-02-24T07:39:30.053Z,22.29
2019-02-24T07:40:30.042Z,22.28
2019-02-24T07:41:30.032Z,22.27
2019-02-24T07:42:30.020Z,22.27
2019-02-24T07:43:30.281Z,22.29
2019-02-24T07:44:30.000Z,22.22
2019-02-24T07:45:29.987Z,22.23
2019-02-24T07:46:29.980Z,22.29
2019-02-24T07:47:29.964Z,22.27
2019-02-24T07:48:29.954Z,22.27
2019-02-24T07:49:29.964Z,22.29
2019-02-24T07:50:29.932Z,22.27
2019-02-24T07:51:29.921Z,22.29
2019-02-24T07:52:29.909Z,22.28
2019-02-24T07:53:29.902Z,22.31
2019-02-24T07:54:29.889Z,22.29
2019-02-24T07:55:29.886Z,22.27
2019-02-24T07:56:29.866Z,22.31
2019-02-24T07:57:29.855Z,22.28
2019-02-24T07:58:29.843Z,22.31
2019-02-24T07:59:29.873Z,22.29
2019-02-24T08:00:32.186Z,22.23
2019-02-24T08:01:30.088Z,22.29
2019-02-24T08:02:29.799Z,22.28
2019-02-24T08:03:29.788Z,22.32
2019-02-24T08:04:29.780Z,22.25
2019-02-24T08:05:29.768Z,22.32
2019-02-24T08:06:29.755Z,22.25
2019-02-24T08:07:29.751Z,22.32
2019-02-24T08:08:29.732Z,22.28
2019-02-24T08:09:29.721Z,22.29
2019-02-24T08:10:29.714Z,22.29
2019-02-24T08:11:29.699Z,22.22
2019-02-24T08:12:29.692Z,22.37
2019-02-24T08:13:29.972Z,22.29
2019-02-24T08:14:29.667Z,22.34
2019-02-24T08:15:29.655Z,22.29
2019-02-24T08:16:29.646Z,22.29
2019-02-24T08:17:29.633Z,22.34
2019-02-24T08:18:29.621Z,22.29
2019-02-24T08:19:30.163Z,22.31
2019-02-24T08:20:29.600Z,22.38
2019-02-24T08:21:29.590Z,22.29
2019-02-24T08:22:29.578Z,22.32
2019-02-24T08:23:29.580Z,22.38
2019-02-24T08:24:29.556Z,22.34
2019-02-24T08:25:29.818Z,22.31
2019-02-24T08:26:29.535Z,22.34
2019-02-24T08:27:29.525Z,22.37
2019-02-24T08:28:29.511Z,22.27
2019-02-24T08:29:29.503Z,22.38
2019-02-24T08:30:29.490Z,22.37
2019-02-24T08:31:29.770Z,22.37
2019-02-24T08:32:29.468Z,22.29
2019-02-24T08:33:29.456Z,22.37
2019-02-24T08:34:29.445Z,22.31
2019-02-24T08:35:29.435Z,22.37
2019-02-24T08:36:29.423Z,22.35
2019-02-24T08:37:29.698Z,22.34
2019-02-24T08:38:29.401Z,22.35
2019-02-24T08:39:29.392Z,22.32
2019-02-24T08:40:29.379Z,22.35
2019-02-24T08:41:29.368Z,22.41
2019-02-24T08:42:29.357Z,22.37
2019-02-24T08:43:29.624Z,22.38
2019-02-24T08:44:29.334Z,22.39
2019-02-24T08:45:29.323Z,22.38
2019-02-24T08:46:29.313Z,22.37
2019-02-24T08:47:29.302Z,22.34
2019-02-24T08:48:29.292Z,22.32
2019-02-24T08:49:29.559Z,22.32
2019-02-24T08:50:29.269Z,22.35
2019-02-24T08:51:29.258Z,22.39
2019-02-24T08:52:29.246Z,22.39
2019-02-24T08:53:29.242Z,22.37
2019-02-24T08:54:29.224Z,22.41
2019-02-24T08:55:29.534Z,22.41
2019-02-24T08:56:29.203Z,22.38
2019-02-24T08:57:29.192Z,22.46
2019-02-24T08:58:29.180Z,22.43
2019-02-24T08:59:29.169Z,22.39
2019-02-24T09:00:29.159Z,22.44
2019-02-24T09:01:29.426Z,22.43
2019-02-24T09:02:29.136Z,22.46
2019-02-24T09:03:29.129Z,22.44
2019-02-24T09:04:29.115Z,22.44
2019-02-24T09:05:29.102Z,22.41
2019-02-24T09:06:29.094Z,22.41
2019-02-24T09:07:29.087Z,22.47
2019-02-24T09:08:29.070Z,22.47
2019-02-24T09:09:29.058Z,22.46
2019-02-24T09:10:29.047Z,22.41
2019-02-24T09:11:29.036Z,22.44
2019-02-24T09:12:29.025Z,22.47
2019-02-24T09:13:29.020Z,22.56
2019-02-24T09:14:29.004Z,22.53
2019-02-24T09:15:28.991Z,22.49
2019-02-24T09:16:28.986Z,22.37
2019-02-24T09:17:28.975Z,22.39
2019-02-24T09:18:28.969Z,22.50
2019-02-24T09:19:28.975Z,22.54
2019-02-24T09:20:28.937Z,22.57
2019-02-24T09:21:28.926Z,22.46
2019-02-24T09:22:28.916Z,22.50
2019-02-24T09:23:28.908Z,22.64
2019-02-24T09:24:28.893Z,22.53
2019-02-24T09:25:29.212Z,22.59
2019-02-24T09:26:28.870Z,22.56
2019-02-24T09:27:28.860Z,22.56
2019-02-24T09:28:28.848Z,22.59
2019-02-24T09:29:28.839Z,22.54
2019-02-24T09:30:28.827Z,22.68
2019-02-24T09:31:29.101Z,22.64
2019-02-24T09:32:28.804Z,22.59
2019-02-24T09:33:28.793Z,22.64
2019-02-24T09:34:28.784Z,22.60
2019-02-24T09:35:28.772Z,22.57
2019-02-24T09:36:28.759Z,22.62
2019-02-24T09:37:28.769Z,22.67
2019-02-24T09:38:28.737Z,22.68
2019-02-24T09:39:28.726Z,22.64
2019-02-24T09:40:28.715Z,22.67
2019-02-24T09:41:28.705Z,22.65
2019-02-24T09:42:28.693Z,22.68
2019-02-24T09:43:28.966Z,22.69
2019-02-24T09:44:28.671Z,22.75
2019-02-24T09:45:28.660Z,22.71
2019-02-24T09:46:28.649Z,22.77
2019-02-24T09:47:28.637Z,22.75
2019-02-24T09:48:28.627Z,22.74
2019-02-24T09:49:28.636Z,22.80
2019-02-24T09:50:28.606Z,22.78
2019-02-24T09:51:28.593Z,22.82
2019-02-24T09:52:28.583Z,22.83
2019-02-24T09:53:28.574Z,22.80
2019-02-24T09:54:28.561Z,22.89
2019-02-24T09:55:28.866Z,22.84
2019-02-24T09:56:28.539Z,22.96
2019-02-24T09:57:28.528Z,22.93
2019-02-24T09:58:28.517Z,22.87
2019-02-24T09:59:28.507Z,22.87
2019-02-24T10:00:28.494Z,22.83
2019-02-24T10:01:28.816Z,22.87
2019-02-24T10:02:28.472Z,22.93
2019-02-24T10:03:28.461Z,22.94
2019-02-24T10:04:28.450Z,22.87
2019-02-24T10:05:28.439Z,22.90
2019-02-24T10:06:28.428Z,22.89
2019-02-24T10:07:29.228Z,22.99
2019-02-24T10:08:28.407Z,23.02
2019-02-24T10:09:28.394Z,22.97
2019-02-24T10:10:28.383Z,23.05
2019-02-24T10:11:28.374Z,22.99
2019-02-24T10:12:28.362Z,23.05
2019-02-24T10:13:28.357Z,23.11
2019-02-24T10:14:28.340Z,23.11
2019-02-24T10:15:28.330Z,23.17
2019-02-24T10:16:28.317Z,23.09
2019-02-24T10:17:28.307Z,23.09
2019-02-24T10:18:28.296Z,23.15
2019-02-24T10:19:28.573Z,23.23
2019-02-24T10:20:28.274Z,23.24
2019-02-24T10:21:28.263Z,23.19
2019-02-24T10:22:28.252Z,23.26
2019-02-24T10:23:28.240Z,23.23
2019-02-24T10:24:28.230Z,23.32
2019-02-24T10:25:28.240Z,23.34
2019-02-24T10:26:28.207Z,23.31
2019-02-24T10:27:28.196Z,23.39
2019-02-24T10:28:28.185Z,23.40
2019-02-24T10:29:28.175Z,23.49
2019-02-24T10:30:28.163Z,23.45
2019-02-24T10:31:28.443Z,23.35
2019-02-24T10:32:28.143Z,23.43
2019-02-24T10:33:28.131Z,23.40
2019-02-24T10:34:28.119Z,23.40
2019-02-24T10:35:28.109Z,23.40
2019-02-24T10:36:29.276Z,23.55
2019-02-24T10:37:28.096Z,23.55
2019-02-24T10:38:28.075Z,23.57
2019-02-24T10:39:29.871Z,23.61
2019-02-24T10:40:28.053Z,23.57
2019-02-24T10:41:28.041Z,23.62
2019-02-24T10:42:28.032Z,23.67
2019-02-24T10:43:28.351Z,23.70
2019-02-24T10:44:28.010Z,23.62
2019-02-24T10:45:27.997Z,23.75
2019-02-24T10:46:27.989Z,23.67
2019-02-24T10:47:27.975Z,23.76
2019-02-24T10:48:27.965Z,23.70
2019-02-24T10:49:28.240Z,23.71
2019-02-24T10:50:27.943Z,23.83
2019-02-24T10:51:27.934Z,23.83
2019-02-24T10:52:27.921Z,23.86
2019-02-24T10:53:28.295Z,23.87
2019-02-24T10:54:27.899Z,23.94
2019-02-24T10:55:28.171Z,24.01
2019-02-24T10:56:27.878Z,24.01
2019-02-24T10:57:27.867Z,23.98
2019-02-24T10:58:34.533Z,24.02
2019-02-24T10:59:28.843Z,24.14
2019-02-24T11:00:27.835Z,24.04
2019-02-24T11:01:29.868Z,24.10
2019-02-24T11:02:27.810Z,24.00
2019-02-24T11:03:27.801Z,24.16
2019-02-24T11:04:27.787Z,24.14
2019-02-24T11:05:27.777Z,24.19
2019-02-24T11:06:27.766Z,24.32
2019-02-24T11:07:27.775Z,24.26
2019-02-24T11:08:27.745Z,24.20
2019-02-24T11:09:27.733Z,24.32
2019-02-24T11:10:27.724Z,24.29
2019-02-24T11:11:27.711Z,24.29
2019-02-24T11:12:27.700Z,24.35
2019-02-24T11:13:28.017Z,24.31
2019-02-24T11:14:27.678Z,24.44
2019-02-24T11:15:27.668Z,24.37
2019-02-24T11:16:27.656Z,24.49
2019-02-24T11:17:27.645Z,24.41
2019-02-24T11:18:27.636Z,24.47
2019-02-24T11:19:27.945Z,24.47
2019-02-24T11:20:27.612Z,24.47
2019-02-24T11:21:27.603Z,24.44
2019-02-24T11:22:27.589Z,24.50
2019-02-24T11:23:27.580Z,24.56
2019-02-24T11:24:27.567Z,24.49
2019-02-24T11:25:27.836Z,24.53
2019-02-24T11:26:27.547Z,24.57
2019-02-24T11:27:27.535Z,24.57
2019-02-24T11:28:27.525Z,24.63
2019-02-24T11:29:27.513Z,24.67
2019-02-24T11:30:27.501Z,24.63
2019-02-24T11:31:27.767Z,24.67
2019-02-24T11:32:27.479Z,24.77
2019-02-24T11:33:27.469Z,24.82
2019-02-24T11:34:27.457Z,24.80
2019-02-24T11:35:27.445Z,24.71
2019-02-24T11:36:27.435Z,24.83
2019-02-24T11:37:27.710Z,24.90
2019-02-24T11:38:27.413Z,24.83
2019-02-24T11:39:27.402Z,24.91
2019-02-24T11:40:27.391Z,24.82
2019-02-24T11:41:27.380Z,24.92
2019-02-24T11:42:27.371Z,24.94
2019-02-24T11:43:27.378Z,24.91
2019-02-24T11:44:27.350Z,25.00
2019-02-24T11:45:27.338Z,24.97
2019-02-24T11:46:27.325Z,25.07
2019-02-24T11:47:27.314Z,24.98
2019-02-24T11:48:27.302Z,25.06
2019-02-24T11:49:27.581Z,25.12
2019-02-24T11:50:27.282Z,25.01
2019-02-24T11:51:27.274Z,25.10
2019-02-24T11:52:27.259Z,25.06
2019-02-24T11:53:27.248Z,25.07
2019-02-24T11:54:27.241Z,25.09
2019-02-24T11:55:27.513Z,25.17
2019-02-24T11:56:27.214Z,25.10
2019-02-24T11:57:27.204Z,25.20
2019-02-24T11:58:27.193Z,25.20
2019-02-24T11:59:27.185Z,25.17
2019-02-24T12:00:27.171Z,25.16
2019-02-24T12:01:27.428Z,25.19
2019-02-24T12:02:34.281Z,25.28
2019-02-24T12:03:28.138Z,25.27
2019-02-24T12:04:27.131Z,25.24
2019-02-24T12:05:27.120Z,25.22
2019-02-24T12:06:27.106Z,25.34
2019-02-24T12:07:27.421Z,25.28
2019-02-24T12:08:27.083Z,25.32
2019-02-24T12:09:27.075Z,25.35
2019-02-24T12:10:27.063Z,25.32
2019-02-24T12:11:27.051Z,25.37
2019-02-24T12:12:27.040Z,25.37
2019-02-24T12:13:27.040Z,25.44
2019-02-24T12:14:27.017Z,25.39
2019-02-24T12:15:27.006Z,25.43
2019-02-24T12:16:26.995Z,25.47
2019-02-24T12:17:26.986Z,25.52
2019-02-24T12:18:26.974Z,25.49
2019-02-24T12:19:26.970Z,25.47
2019-02-24T12:20:26.953Z,25.56
2019-02-24T12:21:26.941Z,25.53
2019-02-24T12:22:26.929Z,25.57
2019-02-24T12:23:26.918Z,25.59
2019-02-24T12:24:26.911Z,25.61
2019-02-24T12:25:26.917Z,25.67
2019-02-24T12:26:26.886Z,25.64
2019-02-24T12:27:26.875Z,25.62
2019-02-24T12:28:26.863Z,25.61
2019-02-24T12:29:26.863Z,25.64
2019-02-24T12:30:26.841Z,25.71
2019-02-24T12:31:27.114Z,25.75
2019-02-24T12:32:26.822Z,25.65
2019-02-24T12:33:26.809Z,25.68
2019-02-24T12:34:26.799Z,25.71
2019-02-24T12:35:26.787Z,25.71
2019-02-24T12:36:26.777Z,25.79
2019-02-24T12:37:27.054Z,25.77
2019-02-24T12:38:26.756Z,25.79
2019-02-24T12:39:26.748Z,25.75
2019-02-24T12:40:26.733Z,25.82
2019-02-24T12:41:26.724Z,25.82
2019-02-24T12:42:26.715Z,25.93
2019-02-24T12:43:27.036Z,25.75
2019-02-24T12:44:26.689Z,25.94
2019-02-24T12:45:26.678Z,25.91
2019-02-24T12:46:26.668Z,25.91
2019-02-24T12:47:26.658Z,25.94
2019-02-24T12:48:26.647Z,25.89
2019-02-24T12:49:26.903Z,25.91
2019-02-24T12:50:26.623Z,25.89
2019-02-24T12:51:26.612Z,25.94
2019-02-24T12:52:26.602Z,25.91